createdAt,value
2022-09-24T00:01:33.003Z,100905.25
2022-09-24T00:04:11.684Z,100907.09
2022-09-24T00:06:43.139Z,100902.81
2022-09-24T00:09:12.704Z,100896.69
2022-09-24T00:11:47.890Z,100906.03
2022-09-24T00:14:18.550Z,100892.91
2022-09-24T00:16:55.829Z,100899.03
2022-09-24T00:19:28.159Z,100889.88
2022-09-24T00:21:56.700Z,100894.91
2022-09-24T00:24:46.744Z,100895.34
2022-09-24T00:27:18.030Z,100898.00
2022-09-24T00:29:51.742Z,100883.28
2022-09-24T00:32:27.980Z,100893.56
2022-09-24T00:34:56.745Z,100892.03
2022-09-24T00:37:24.833Z,100894.50
2022-09-24T00:39:53.016Z,100890.84
2022-09-24T00:42:37.517Z,100897.75
2022-09-24T00:45:15.747Z,100898.25
2022-09-24T00:47:46.278Z,100889.50
2022-09-24T00:50:22.642Z,100888.25
2022-09-24T00:53:03.860Z,100895.31
2022-09-24T00:55:34.218Z,100889.25
2022-09-24T00:58:05.984Z,100889.97
2022-09-24T01:00:38.936Z,100895.50
2022-09-24T01:03:10.497Z,100896.22
2022-09-24T01:05:40.630Z,100895.44
2022-09-24T01:08:07.724Z,100885.25
2022-09-24T01:11:04.875Z,100888.75
2022-09-24T01:14:20.343Z,100892.34
2022-09-24T01:17:04.933Z,100887.78
2022-09-24T01:19:51.030Z,100884.41
2022-09-24T01:22:37.869Z,100884.34
2022-09-24T01:25:32.754Z,100896.50
2022-09-24T01:28:20.037Z,100888.69
2022-09-24T01:30:51.073Z,100892.66
2022-09-24T01:33:22.221Z,100890.19
2022-09-24T01:35:58.335Z,100884.72
2022-09-24T01:38:34.634Z,100886.16
2022-09-24T01:41:03.946Z,100891.34
2022-09-24T01:43:32.041Z,100883.38
2022-09-24T01:46:06.441Z,100888.38
2022-09-24T01:48:37.398Z,100881.78
2022-09-24T01:51:22.165Z,100884.78
2022-09-24T01:54:05.010Z,100875.56
2022-09-24T01:56:46.714Z,100875.16
2022-09-24T01:59:25.655Z,100876.41
2022-09-24T02:02:03.290Z,100879.47
2022-09-24T02:04:41.952Z,100882.19
2022-09-24T02:07:19.327Z,100875.69
2022-09-24T02:09:52.055Z,100882.53
2022-09-24T02:12:37.898Z,100872.41
2022-09-24T02:15:30.215Z,100876.66
2022-09-24T02:18:04.875Z,100871.38
2022-09-24T02:20:33.990Z,100871.19
2022-09-24T02:23:01.263Z,100867.50
2022-09-24T02:25:43.305Z,100865.34
2022-09-24T02:28:10.421Z,100873.16
2022-09-24T02:30:52.086Z,100872.63
2022-09-24T02:33:42.537Z,100863.19
2022-09-24T02:36:11.493Z,100867.25
2022-09-24T02:38:38.570Z,100862.63
2022-09-24T02:41:09.470Z,100861.56
2022-09-24T02:43:36.653Z,100866.69
2022-09-24T02:46:06.178Z,100860.97
2022-09-24T02:48:33.120Z,100860.66
2022-09-24T02:51:04.080Z,100860.41
2022-09-24T02:53:33.947Z,100863.91
2022-09-24T02:56:03.999Z,100859.16
2022-09-24T02:58:31.505Z,100862.09
2022-09-24T03:01:03.381Z,100861.78
2022-09-24T03:03:30.528Z,100854.38
2022-09-24T03:06:01.879Z,100857.28
2022-09-24T03:08:31.278Z,100853.91
2022-09-24T03:10:58.229Z,100854.09
2022-09-24T03:13:27.755Z,100852.03
2022-09-24T03:15:57.427Z,100851.88
2022-09-24T03:18:24.284Z,100848.91
2022-09-24T03:21:08.645Z,100855.88
2022-09-24T03:23:36.511Z,100854.19
2022-09-24T03:26:06.189Z,100854.56
2022-09-24T03:28:33.195Z,100855.41
2022-09-24T03:31:00.718Z,100846.66
2022-09-24T03:33:43.195Z,100848.34
2022-09-24T03:36:25.909Z,100844.19
2022-09-24T03:38:56.510Z,100853.47
2022-09-24T03:41:28.413Z,100845.50
2022-09-24T03:43:58.441Z,100852.47
2022-09-24T03:46:28.376Z,100848.25
2022-09-24T03:49:00.446Z,100843.25
2022-09-24T03:51:27.419Z,100847.03
2022-09-24T03:53:54.312Z,100848.16
2022-09-24T03:56:24.192Z,100842.69
2022-09-24T03:58:51.092Z,100834.34
2022-09-24T04:01:20.608Z,100824.84
2022-09-24T04:03:51.620Z,100830.31
2022-09-24T04:06:23.452Z,100835.91
2022-09-24T04:08:57.051Z,100830.56
2022-09-24T04:11:25.061Z,100839.13
2022-09-24T04:13:52.975Z,100836.19
2022-09-24T04:16:20.126Z,100837.63
2022-09-24T04:18:48.073Z,100835.66
2022-09-24T04:21:14.923Z,100823.59
2022-09-24T04:23:44.249Z,100832.72
2022-09-24T04:26:11.443Z,100827.56
2022-09-24T04:28:43.142Z,100831.16
2022-09-24T04:31:12.291Z,100834.16
2022-09-24T04:33:39.254Z,100829.00
2022-09-24T04:36:06.085Z,100836.56
2022-09-24T04:38:33.038Z,100828.88
2022-09-24T04:41:10.298Z,100826.53
2022-09-24T04:43:37.280Z,100836.72
2022-09-24T04:46:05.842Z,100824.31
2022-09-24T04:48:32.780Z,100827.59
2022-09-24T04:50:59.670Z,100825.16
2022-09-24T04:53:27.164Z,100831.06
2022-09-24T04:55:56.580Z,100828.06
2022-09-24T04:58:23.632Z,100829.66
2022-09-24T05:00:53.342Z,100827.84
2022-09-24T05:03:27.781Z,100826.00
2022-09-24T05:05:55.585Z,100827.59
2022-09-24T05:08:23.026Z,100832.09
2022-09-24T05:10:49.948Z,100822.22
2022-09-24T05:13:23.472Z,100831.22
2022-09-24T05:15:50.765Z,100822.00
2022-09-24T05:18:22.389Z,100830.84
2022-09-24T05:20:49.613Z,100824.94
2022-09-24T05:23:18.864Z,100826.69
2022-09-24T05:26:04.625Z,100825.09
2022-09-24T05:28:35.414Z,100828.19
2022-09-24T05:31:05.977Z,100823.19
2022-09-24T05:33:36.193Z,100828.00
2022-09-24T05:36:04.640Z,100825.66
2022-09-24T05:38:32.923Z,100828.66
2022-09-24T05:41:00.089Z,100826.97
2022-09-24T05:43:31.891Z,100820.88
2022-09-24T05:45:59.271Z,100826.69
2022-09-24T05:48:28.824Z,100822.09
2022-09-24T05:50:56.380Z,100827.47
2022-09-24T05:53:24.060Z,100822.47
2022-09-24T05:55:53.528Z,100835.28
2022-09-24T05:58:23.583Z,100839.75
2022-09-24T06:00:51.254Z,100835.09
2022-09-24T06:03:20.792Z,100843.50
2022-09-24T06:05:50.807Z,100839.94
2022-09-24T06:08:22.103Z,100847.16
2022-09-24T06:11:02.571Z,100843.44
2022-09-24T06:13:32.330Z,100849.81
2022-09-24T06:16:09.877Z,100843.91
2022-09-24T06:18:40.073Z,100839.94
2022-09-24T06:21:15.857Z,100850.75
2022-09-24T06:23:45.434Z,100857.53
2022-09-24T06:26:16.998Z,100852.00
2022-09-24T06:28:43.989Z,100848.50
2022-09-24T06:31:12.516Z,100850.19
2022-09-24T06:33:40.599Z,100847.19
2022-09-24T06:36:07.870Z,100852.31
2022-09-24T06:38:35.450Z,100847.31
2022-09-24T06:41:07.162Z,100856.56
2022-09-24T06:43:35.252Z,100855.50
2022-09-24T06:46:03.915Z,100858.47
2022-09-24T06:48:33.824Z,100856.03
2022-09-24T06:51:06.405Z,100861.31
2022-09-24T06:53:33.702Z,100856.25
2022-09-24T06:56:00.762Z,100855.56
2022-09-24T06:58:27.734Z,100853.03
2022-09-24T07:01:01.639Z,100846.88
2022-09-24T07:03:32.070Z,100857.84
2022-09-24T07:06:11.608Z,100851.09
2022-09-24T07:08:38.697Z,100860.84
2022-09-24T07:11:08.983Z,100863.38
2022-09-24T07:13:35.872Z,100862.41
2022-09-24T07:16:03.002Z,100868.31
2022-09-24T07:18:34.615Z,100876.69
2022-09-24T07:21:01.568Z,100867.84
2022-09-24T07:23:30.922Z,100865.75
2022-09-24T07:26:01.109Z,100877.47
2022-09-24T07:28:28.056Z,100871.69
2022-09-24T07:30:59.956Z,100874.09
2022-09-24T07:33:27.549Z,100868.84
2022-09-24T07:35:57.014Z,100881.94
2022-09-24T07:38:24.635Z,100875.88
2022-09-24T07:40:58.919Z,100874.59
2022-09-24T07:43:26.931Z,100873.81
2022-09-24T07:45:56.835Z,100872.97
2022-09-24T07:48:24.359Z,100879.16
2022-09-24T07:50:51.376Z,100886.50
2022-09-24T07:53:18.333Z,100877.22
2022-09-24T07:55:47.248Z,100879.19
2022-09-24T07:58:15.055Z,100881.16
2022-09-24T08:00:44.703Z,100883.53
2022-09-24T08:03:11.711Z,100881.25
2022-09-24T08:05:45.896Z,100868.47
2022-09-24T08:08:15.258Z,100876.91
2022-09-24T08:10:45.026Z,100882.03
2022-09-24T08:13:14.991Z,100876.38
2022-09-24T08:15:42.156Z,100878.91
2022-09-24T08:18:09.729Z,100885.09
2022-09-24T08:20:38.794Z,100875.34
2022-09-24T08:23:10.528Z,100872.63
2022-09-24T08:25:40.078Z,100881.25
2022-09-24T08:28:08.686Z,100879.28
2022-09-24T08:30:42.529Z,100885.69
2022-09-24T08:33:10.503Z,100879.94
2022-09-24T08:35:39.943Z,100878.97
2022-09-24T08:38:10.629Z,100872.31
2022-09-24T08:40:50.870Z,100869.81
2022-09-24T08:43:45.256Z,100876.00
2022-09-24T08:46:39.106Z,100879.16
2022-09-24T08:49:16.278Z,100880.50
2022-09-24T08:52:36.234Z,100882.69
2022-09-24T08:55:14.325Z,100887.25
2022-09-24T08:57:55.940Z,100889.66
2022-09-24T09:00:23.713Z,100885.44
2022-09-24T09:02:55.811Z,100886.34
2022-09-24T09:06:14.976Z,100886.34
2022-09-24T09:09:07.904Z,100900.41
2022-09-24T09:11:39.449Z,100898.00
2022-09-24T09:14:19.678Z,100893.88
2022-09-24T09:16:54.232Z,100893.63
2022-09-24T09:19:30.128Z,100890.59
2022-09-24T09:22:14.330Z,100900.72
2022-09-24T09:25:03.489Z,100897.34
2022-09-24T09:27:33.974Z,100898.66
2022-09-24T09:30:11.792Z,100901.44
2022-09-24T09:33:07.625Z,100895.84
2022-09-24T09:35:54.047Z,100899.38
2022-09-24T09:38:40.779Z,100896.75
2022-09-24T09:41:39.855Z,100901.50
2022-09-24T09:44:23.529Z,100899.88
2022-09-24T09:47:17.539Z,100903.47
2022-09-24T09:49:47.594Z,100898.59
2022-09-24T09:52:24.969Z,100900.53
2022-09-24T09:54:52.223Z,100901.06
2022-09-24T09:57:26.258Z,100898.97
2022-09-24T09:59:55.310Z,100905.34
2022-09-24T10:02:33.958Z,100904.41
2022-09-24T10:05:06.683Z,100901.31
2022-09-24T10:07:45.349Z,100892.53
2022-09-24T10:10:25.099Z,100904.31
2022-09-24T10:13:10.269Z,100903.00
2022-09-24T10:16:03.807Z,100898.88
2022-09-24T10:18:38.807Z,100899.09
2022-09-24T10:21:12.051Z,100901.41
2022-09-24T10:23:48.352Z,100901.13
2022-09-24T10:26:18.963Z,100899.59
2022-09-24T10:29:11.074Z,100900.06
2022-09-24T10:31:40.447Z,100896.59
2022-09-24T10:34:28.306Z,100905.84
2022-09-24T10:37:16.365Z,100900.06
2022-09-24T10:39:43.314Z,100904.44
2022-09-24T10:42:25.637Z,100908.28
2022-09-24T10:44:55.421Z,100897.84
2022-09-24T10:47:50.657Z,100907.16
2022-09-24T10:50:46.444Z,100898.59
2022-09-24T10:53:41.540Z,100908.50
2022-09-24T10:56:28.085Z,100900.66
2022-09-24T10:59:25.021Z,100902.34
2022-09-24T11:02:27.647Z,100903.72
2022-09-24T11:05:06.532Z,100903.16
2022-09-24T11:07:45.657Z,100905.47
2022-09-24T11:10:51.333Z,100908.50
2022-09-24T11:13:32.786Z,100894.69
2022-09-24T11:16:18.183Z,100897.16
2022-09-24T11:19:20.410Z,100903.47
2022-09-24T11:22:24.817Z,100902.97
2022-09-24T11:25:38.579Z,100898.31
2022-09-24T11:28:30.032Z,100903.56
2022-09-24T11:31:14.879Z,100896.53
2022-09-24T11:34:11.158Z,100893.97
2022-09-24T11:37:00.808Z,100896.94
2022-09-24T11:40:08.718Z,100890.66
2022-09-24T11:43:20.389Z,100888.66
2022-09-24T11:46:06.238Z,100893.84
2022-09-24T11:49:09.761Z,100901.13
2022-09-24T11:52:22.408Z,100891.03
2022-09-24T11:55:13.777Z,100891.84
2022-09-24T11:58:14.051Z,100896.88
2022-09-24T12:00:51.720Z,100897.06
2022-09-24T12:04:08.201Z,100887.53
2022-09-24T12:07:06.267Z,100889.66
2022-09-24T12:10:07.764Z,100883.19
2022-09-24T12:12:42.176Z,100885.03
2022-09-24T12:15:22.319Z,100887.69
2022-09-24T12:18:04.270Z,100886.81
2022-09-24T12:20:33.558Z,100883.25
2022-09-24T12:23:12.685Z,100884.63
2022-09-24T12:25:47.609Z,100890.19
2022-09-24T12:28:37.408Z,100886.50
2022-09-24T12:31:38.750Z,100888.66
2022-09-24T12:34:57.771Z,100884.03
2022-09-24T12:37:33.121Z,100884.59
2022-09-24T12:40:31.128Z,100881.53
2022-09-24T12:43:03.590Z,100880.59
2022-09-24T12:45:31.198Z,100886.34
2022-09-24T12:48:01.140Z,100885.75
2022-09-24T12:50:31.720Z,100878.59
2022-09-24T12:53:01.170Z,100875.47
2022-09-24T12:55:35.079Z,100883.09
2022-09-24T12:58:40.860Z,100872.00
2022-09-24T13:01:27.214Z,100880.19
2022-09-24T13:04:15.135Z,100869.25
2022-09-24T13:06:49.080Z,100868.09
2022-09-24T13:09:38.378Z,100866.44
2022-09-24T13:12:18.099Z,100872.34
2022-09-24T13:15:04.315Z,100874.84
2022-09-24T13:17:39.859Z,100864.94
2022-09-24T13:20:19.165Z,100867.22
2022-09-24T13:23:00.471Z,100862.91
2022-09-24T13:25:29.999Z,100869.84
2022-09-24T13:28:04.114Z,100866.69
2022-09-24T13:30:40.940Z,100867.72
2022-09-24T13:33:37.595Z,100860.19
2022-09-24T13:36:19.305Z,100863.72
2022-09-24T13:39:01.419Z,100863.13
2022-09-24T13:42:04.634Z,100863.56
2022-09-24T13:44:42.482Z,100857.16
2022-09-24T13:47:51.157Z,100852.06
2022-09-24T13:50:24.951Z,100856.84
2022-09-24T13:53:17.206Z,100860.53
2022-09-24T13:55:57.735Z,100844.72
2022-09-24T13:58:35.703Z,100854.19
2022-09-24T14:01:29.846Z,100852.72
2022-09-24T14:04:22.187Z,100844.56
2022-09-24T14:07:02.028Z,100855.13
2022-09-24T14:09:28.894Z,100851.34
2022-09-24T14:12:02.165Z,100850.53
2022-09-24T14:14:34.940Z,100850.09
2022-09-24T14:17:14.183Z,100850.50
2022-09-24T14:19:42.309Z,100859.38
2022-09-24T14:22:23.336Z,100850.22
2022-09-24T14:25:07.268Z,100851.28
2022-09-24T14:27:43.894Z,100856.97
2022-09-24T14:30:23.962Z,100840.19
2022-09-24T14:33:05.266Z,100844.75
2022-09-24T14:35:37.574Z,100848.28
2022-09-24T14:38:06.635Z,100845.25
2022-09-24T14:40:50.151Z,100840.81
2022-09-24T14:43:42.050Z,100838.84
2022-09-24T14:46:34.429Z,100843.53
2022-09-24T14:49:21.848Z,100841.00
2022-09-24T14:52:16.099Z,100847.88
2022-09-24T14:54:45.976Z,100842.41
2022-09-24T14:57:25.349Z,100846.78
2022-09-24T14:59:52.568Z,100837.19
2022-09-24T15:02:37.240Z,100843.00
2022-09-24T15:05:10.999Z,100837.78
2022-09-24T15:07:38.114Z,100840.13
2022-09-24T15:10:06.246Z,100821.47
2022-09-24T15:12:37.949Z,100834.94
2022-09-24T15:15:16.962Z,100834.94
2022-09-24T15:17:47.502Z,100839.66
2022-09-24T15:20:14.757Z,100838.41
2022-09-24T15:22:41.799Z,100839.25
2022-09-24T15:25:09.337Z,100832.19
2022-09-24T15:27:42.738Z,100840.19
2022-09-24T15:30:18.631Z,100833.38
2022-09-24T15:32:45.817Z,100831.69
2022-09-24T15:35:17.407Z,100837.56
2022-09-24T15:37:45.371Z,100838.00
2022-09-24T15:40:22.980Z,100831.34
2022-09-24T15:42:51.059Z,100822.69
2022-09-24T15:45:23.549Z,100832.59
2022-09-24T15:47:54.334Z,100830.84
2022-09-24T15:50:27.086Z,100829.50
2022-09-24T15:52:57.061Z,100830.06
2022-09-24T15:55:24.436Z,100829.09
2022-09-24T15:57:51.575Z,100827.06
2022-09-24T16:00:21.949Z,100827.63
2022-09-24T16:02:57.617Z,100833.09
2022-09-24T16:05:27.914Z,100837.81
2022-09-24T16:07:54.797Z,100829.41
2022-09-24T16:10:24.029Z,100826.59
2022-09-24T16:12:58.401Z,100826.09
2022-09-24T16:15:25.378Z,100833.88
2022-09-24T16:17:57.161Z,100833.56
2022-09-24T16:20:23.954Z,100829.91
2022-09-24T16:22:50.929Z,100831.22
2022-09-24T16:25:17.847Z,100838.91
2022-09-24T16:27:44.728Z,100837.94
2022-09-24T16:30:11.835Z,100839.44
2022-09-24T16:32:41.796Z,100835.66
2022-09-24T16:35:13.152Z,100836.53
2022-09-24T16:37:41.139Z,100840.41
2022-09-24T16:40:12.116Z,100838.28
2022-09-24T16:42:39.136Z,100834.69
2022-09-24T16:45:12.373Z,100838.22
2022-09-24T16:47:41.870Z,100841.16
2022-09-24T16:50:14.682Z,100836.53
2022-09-24T16:52:44.977Z,100835.75
2022-09-24T16:55:14.945Z,100835.41
2022-09-24T16:57:44.323Z,100833.06
2022-09-24T17:00:14.395Z,100841.13
2022-09-24T17:02:45.960Z,100837.25
2022-09-24T17:05:15.329Z,100837.59
2022-09-24T17:07:42.263Z,100848.72
2022-09-24T17:10:14.199Z,100847.31
2022-09-24T17:12:48.740Z,100842.88
2022-09-24T17:15:20.547Z,100840.00
2022-09-24T17:17:50.852Z,100840.16
2022-09-24T17:20:21.369Z,100833.88
2022-09-24T17:22:49.033Z,100836.53
2022-09-24T17:25:18.407Z,100843.28
2022-09-24T17:27:47.976Z,100838.22
2022-09-24T17:30:15.266Z,100840.31
2022-09-24T17:32:42.123Z,100841.53
2022-09-24T17:35:12.729Z,100832.69
2022-09-24T17:37:39.672Z,100835.66
2022-09-24T17:40:07.277Z,100849.22
2022-09-24T17:42:34.696Z,100845.84
2022-09-24T17:45:04.524Z,100845.84
2022-09-24T17:47:51.464Z,100839.63
2022-09-24T17:50:18.480Z,100840.22
2022-09-24T17:52:45.391Z,100845.47
2022-09-24T17:55:12.451Z,100831.22
2022-09-24T17:57:39.433Z,100838.97
2022-09-24T18:00:07.358Z,100842.78
2022-09-24T18:02:36.523Z,100843.53
2022-09-24T18:05:03.539Z,100841.19
2022-09-24T18:07:32.648Z,100840.09
2022-09-24T18:10:02.539Z,100846.91
2022-09-24T18:12:29.382Z,100843.78
2022-09-24T18:14:56.322Z,100846.16
2022-09-24T18:17:23.136Z,100853.50
2022-09-24T18:19:50.001Z,100857.97
2022-09-24T18:22:18.921Z,100853.25
2022-09-24T18:24:50.483Z,100856.88
2022-09-24T18:27:17.409Z,100858.78
2022-09-24T18:29:44.632Z,100865.78
2022-09-24T18:32:15.901Z,100865.66
2022-09-24T18:34:42.785Z,100867.69
2022-09-24T18:37:10.287Z,100865.97
2022-09-24T18:39:37.194Z,100867.22
2022-09-24T18:42:06.308Z,100859.72
2022-09-24T18:44:36.148Z,100860.97
2022-09-24T18:47:03.107Z,100859.38
2022-09-24T18:49:32.533Z,100862.31
2022-09-24T18:52:01.888Z,100866.38
2022-09-24T18:54:28.922Z,100867.28
2022-09-24T18:56:55.736Z,100866.56
2022-09-24T18:59:26.050Z,100865.00
2022-09-24T19:01:55.999Z,100867.47
2022-09-24T19:04:30.371Z,100867.47
2022-09-24T19:07:03.275Z,100867.72
2022-09-24T19:09:31.441Z,100878.91
2022-09-24T19:12:05.883Z,100873.19
2022-09-24T19:14:32.846Z,100874.03
2022-09-24T19:16:59.704Z,100870.91
2022-09-24T19:19:29.126Z,100881.88
2022-09-24T19:22:00.771Z,100875.63
2022-09-24T19:24:29.745Z,100882.06
2022-09-24T19:27:01.178Z,100882.94
2022-09-24T19:29:28.478Z,100875.47
2022-09-24T19:31:56.281Z,100876.75
2022-09-24T19:34:27.895Z,100868.75
2022-09-24T19:36:54.958Z,100872.78
2022-09-24T19:39:21.837Z,100870.84
2022-09-24T19:41:52.858Z,100872.44
2022-09-24T19:44:22.310Z,100865.63
2022-09-24T19:46:51.843Z,100864.97
2022-09-24T19:49:24.212Z,100863.03
2022-09-24T19:51:53.156Z,100864.38
2022-09-24T19:54:19.987Z,100870.28
2022-09-24T19:56:46.989Z,100870.44
2022-09-24T19:59:16.481Z,100874.09
2022-09-24T20:01:44.705Z,100866.78
2022-09-24T20:04:16.327Z,100863.13
2022-09-24T20:06:43.246Z,100868.19
2022-09-24T20:09:12.609Z,100869.47
2022-09-24T20:11:39.408Z,100873.34
2022-09-24T20:14:10.214Z,100868.75
2022-09-24T20:16:42.727Z,100865.59
2022-09-24T20:19:15.009Z,100865.81
2022-09-24T20:21:42.206Z,100862.03
2022-09-24T20:24:12.083Z,100864.78
2022-09-24T20:26:59.842Z,100859.09
2022-09-24T20:29:28.911Z,100857.59
2022-09-24T20:31:56.543Z,100861.84
2022-09-24T20:34:34.299Z,100860.78
2022-09-24T20:37:06.937Z,100871.97
2022-09-24T20:39:36.376Z,100861.06
2022-09-24T20:42:05.782Z,100860.28
2022-09-24T20:44:33.733Z,100863.00
2022-09-24T20:47:03.024Z,100864.72
2022-09-24T20:49:30.119Z,100863.44
2022-09-24T20:51:57.974Z,100860.47
2022-09-24T20:54:28.744Z,100863.78
2022-09-24T20:56:56.539Z,100857.88
2022-09-24T20:59:25.716Z,100850.38
2022-09-24T21:01:57.771Z,100854.31
2022-09-24T21:04:24.868Z,100853.47
2022-09-24T21:06:51.832Z,100854.94
2022-09-24T21:09:21.154Z,100854.91
2022-09-24T21:11:50.222Z,100859.16
2022-09-24T21:14:17.804Z,100865.88
2022-09-24T21:16:45.479Z,100862.31
2022-09-24T21:19:14.696Z,100878.03
2022-09-24T21:21:44.374Z,100867.72
2022-09-24T21:24:14.587Z,100859.50
2022-09-24T21:26:45.240Z,100860.72
2022-09-24T21:29:20.728Z,100865.31
2022-09-24T21:31:48.605Z,100863.19
2022-09-24T21:34:20.718Z,100859.38
2022-09-24T21:36:48.193Z,100856.47
2022-09-24T21:39:23.216Z,100857.38
2022-09-24T21:41:53.025Z,100862.03
2022-09-24T21:44:20.175Z,100858.22
2022-09-24T21:46:52.263Z,100866.03
2022-09-24T21:49:20.663Z,100861.19
2022-09-24T21:51:47.744Z,100864.59
2022-09-24T21:54:21.485Z,100859.13
2022-09-24T21:56:48.661Z,100858.13
2022-09-24T21:59:37.001Z,100864.19
2022-09-24T22:02:12.502Z,100855.00
2022-09-24T22:04:41.787Z,100861.50
2022-09-24T22:07:11.254Z,100854.81
2022-09-24T22:09:38.498Z,100861.34
2022-09-24T22:12:05.483Z,100853.16
2022-09-24T22:14:34.741Z,100855.47
2022-09-24T22:17:05.879Z,100854.38
2022-09-24T22:19:33.226Z,100855.63
2022-09-24T22:22:03.080Z,100852.06
2022-09-24T22:24:30.664Z,100854.19
2022-09-24T22:27:01.117Z,100853.28
2022-09-24T22:29:31.237Z,100860.84
2022-09-24T22:31:58.344Z,100857.53
2022-09-24T22:34:44.059Z,100850.81
2022-09-24T22:37:12.319Z,100855.63
2022-09-24T22:39:40.665Z,100852.50
2022-09-24T22:42:07.876Z,100851.66
2022-09-24T22:44:35.570Z,100856.94
2022-09-24T22:47:02.704Z,100841.13
2022-09-24T22:49:32.791Z,100851.22
2022-09-24T22:52:00.436Z,100842.63
2022-09-24T22:54:27.674Z,100847.06
2022-09-24T22:56:56.619Z,100848.34
2022-09-24T22:59:23.576Z,100848.31
2022-09-24T23:01:51.347Z,100856.53
2022-09-24T23:04:19.294Z,100852.13
2022-09-24T23:06:49.018Z,100849.16
2022-09-24T23:09:16.469Z,100848.09
2022-09-24T23:11:44.942Z,100849.16
2022-09-24T23:14:18.167Z,100852.50
2022-09-24T23:16:46.897Z,100854.63
2022-09-24T23:19:20.075Z,100853.56
2022-09-24T23:21:49.899Z,100850.59
2022-09-24T23:24:22.169Z,100846.53
2022-09-24T23:26:55.951Z,100840.78
2022-09-24T23:29:24.632Z,100838.50
2022-09-24T23:31:54.086Z,100838.50
2022-09-24T23:34:23.017Z,100835.22
2022-09-24T23:36:50.020Z,100839.91
2022-09-24T23:39:16.970Z,100841.59
2022-09-24T23:41:46.375Z,100834.81
2022-09-24T23:44:13.384Z,100838.84
2022-09-24T23:46:40.472Z,100836.97
2022-09-24T23:49:10.426Z,100835.94
2022-09-24T23:51:42.414Z,100841.00
2022-09-24T23:54:14.906Z,100836.81
2022-09-24T23:56:41.793Z,100841.44
2022-09-24T23:59:14.333Z,100837.19
